sensor_id;sensor_type;location;lat;lon;timestamp;pressure;altitude;pressure_sealevel;temperature;humidity
35888;BME280;21990;42.540;23.496;2023-02-17T00:01:58;94456.41;;;-2.21;84.38
35888;BME280;21990;42.540;23.496;2023-02-17T00:04:23;94452.38;;;-2.17;84.27
35888;BME280;21990;42.540;23.496;2023-02-17T00:06:49;94442.13;;;-2.16;84.41
35888;BME280;21990;42.540;23.496;2023-02-17T00:09:15;94443.16;;;-2.26;84.41
35888;BME280;21990;42.540;23.496;2023-02-17T00:11:41;94450.72;;;-2.30;85.06
35888;BME280;21990;42.540;23.496;2023-02-17T00:14:08;94435.19;;;-2.24;85.03
35888;BME280;21990;42.540;23.496;2023-02-17T00:16:36;94437.09;;;-2.21;84.35
35888;BME280;21990;42.540;23.496;2023-02-17T00:19:01;94429.25;;;-2.39;83.91
35888;BME280;21990;42.540;23.496;2023-02-17T00:21:47;94447.69;;;-2.36;85.15
35888;BME280;21990;42.540;23.496;2023-02-17T00:24:12;94433.38;;;-2.47;84.84
35888;BME280;21990;42.540;23.496;2023-02-17T00:26:38;94432.16;;;-2.46;84.98
35888;BME280;21990;42.540;23.496;2023-02-17T00:29:03;94433.03;;;-2.49;84.51
35888;BME280;21990;42.540;23.496;2023-02-17T00:31:29;94435.09;;;-2.53;84.36
35888;BME280;21990;42.540;23.496;2023-02-17T00:33:55;94436.44;;;-2.45;84.97
35888;BME280;21990;42.540;23.496;2023-02-17T00:36:21;94435.63;;;-2.42;84.15
35888;BME280;21990;42.540;23.496;2023-02-17T00:38:47;94428.16;;;-2.61;84.55
35888;BME280;21990;42.540;23.496;2023-02-17T00:41:14;94422.72;;;-2.65;84.87
35888;BME280;21990;42.540;23.496;2023-02-17T00:43:39;94425.03;;;-2.63;85.01
35888;BME280;21990;42.540;23.496;2023-02-17T00:46:05;94428.75;;;-2.70;84.69
35888;BME280;21990;42.540;23.496;2023-02-17T00:48:31;94418.06;;;-2.88;85.30
35888;BME280;21990;42.540;23.496;2023-02-17T00:50:57;94411.50;;;-2.74;85.72
35888;BME280;21990;42.540;23.496;2023-02-17T00:53:22;94418.06;;;-2.88;85.77
35888;BME280;21990;42.540;23.496;2023-02-17T00:55:48;94407.09;;;-2.71;85.37
35888;BME280;21990;42.540;23.496;2023-02-17T00:58:14;94399.75;;;-2.78;84.97
35888;BME280;21990;42.540;23.496;2023-02-17T01:00:40;94398.13;;;-2.75;85.45
35888;BME280;21990;42.540;23.496;2023-02-17T01:03:05;94409.78;;;-2.68;84.52
35888;BME280;21990;42.540;23.496;2023-02-17T01:05:31;94400.28;;;-2.67;84.65
35888;BME280;21990;42.540;23.496;2023-02-17T01:07:57;94406.13;;;-2.81;84.24
35888;BME280;21990;42.540;23.496;2023-02-17T01:10:22;94402.03;;;-2.73;84.69
35888;BME280;21990;42.540;23.496;2023-02-17T01:12:48;94391.97;;;-2.83;84.80
35888;BME280;21990;42.540;23.496;2023-02-17T01:15:13;94400.69;;;-2.84;85.25
35888;BME280;21990;42.540;23.496;2023-02-17T01:17:39;94390.00;;;-2.82;84.90
35888;BME280;21990;42.540;23.496;2023-02-17T01:20:05;94393.63;;;-2.85;84.92
35888;BME280;21990;42.540;23.496;2023-02-17T01:22:32;94389.59;;;-2.81;84.85
35888;BME280;21990;42.540;23.496;2023-02-17T01:24:59;94398.34;;;-2.86;85.32
35888;BME280;21990;42.540;23.496;2023-02-17T01:27:24;94383.38;;;-2.85;84.54
35888;BME280;21990;42.540;23.496;2023-02-17T01:29:50;94382.81;;;-2.96;84.27
35888;BME280;21990;42.540;23.496;2023-02-17T01:32:15;94390.56;;;-2.91;85.42
35888;BME280;21990;42.540;23.496;2023-02-17T01:34:41;94385.22;;;-2.98;85.06
35888;BME280;21990;42.540;23.496;2023-02-17T01:37:06;94392.44;;;-3.04;85.30
35888;BME280;21990;42.540;23.496;2023-02-17T01:39:32;94379.94;;;-3.09;86.04
35888;BME280;21990;42.540;23.496;2023-02-17T01:41:57;94385.78;;;-3.07;85.40
35888;BME280;21990;42.540;23.496;2023-02-17T01:44:24;94393.56;;;-3.02;85.19
35888;BME280;21990;42.540;23.496;2023-02-17T01:46:52;94391.31;;;-3.07;85.60
35888;BME280;21990;42.540;23.496;2023-02-17T01:49:37;94395.78;;;-3.13;85.86
35888;BME280;21990;42.540;23.496;2023-02-17T01:52:12;94391.66;;;-3.05;86.30
35888;BME280;21990;42.540;23.496;2023-02-17T01:54:44;94387.50;;;-3.13;86.14
35888;BME280;21990;42.540;23.496;2023-02-17T01:57:14;94391.44;;;-3.14;86.38
35888;BME280;21990;42.540;23.496;2023-02-17T01:59:40;94387.09;;;-3.11;85.70
35888;BME280;21990;42.540;23.496;2023-02-17T02:02:06;94383.81;;;-3.06;85.95
35888;BME280;21990;42.540;23.496;2023-02-17T02:04:35;94388.97;;;-3.08;85.94
35888;BME280;21990;42.540;23.496;2023-02-17T02:07:05;94377.97;;;-3.08;85.79
35888;BME280;21990;42.540;23.496;2023-02-17T02:09:37;94373.88;;;-3.20;85.96
35888;BME280;21990;42.540;23.496;2023-02-17T02:12:20;94378.38;;;-3.29;85.67
35888;BME280;21990;42.540;23.496;2023-02-17T02:14:47;94381.84;;;-3.25;85.55
35888;BME280;21990;42.540;23.496;2023-02-17T02:20:20;94374.44;;;-3.28;85.95
35888;BME280;21990;42.540;23.496;2023-02-17T02:34:22;94374.91;;;-3.33;86.43
35888;BME280;21990;42.540;23.496;2023-02-17T02:37:06;94372.00;;;-3.26;86.14
35888;BME280;21990;42.540;23.496;2023-02-17T02:39:37;94374.06;;;-3.30;85.57
35888;BME280;21990;42.540;23.496;2023-02-17T02:42:07;94376.47;;;-3.32;85.93
35888;BME280;21990;42.540;23.496;2023-02-17T02:44:34;94372.16;;;-3.33;85.62
35888;BME280;21990;42.540;23.496;2023-02-17T02:49:57;94374.03;;;-3.47;85.77
35888;BME280;21990;42.540;23.496;2023-02-17T02:55:16;94377.03;;;-3.41;86.35
35888;BME280;21990;42.540;23.496;2023-02-17T03:00:32;94377.97;;;-3.48;86.24
35888;BME280;21990;42.540;23.496;2023-02-17T03:05:51;94389.91;;;-3.54;86.63
35888;BME280;21990;42.540;23.496;2023-02-17T03:08:37;94382.34;;;-3.50;87.15
35888;BME280;21990;42.540;23.496;2023-02-17T03:11:04;94393.31;;;-3.47;86.93
35888;BME280;21990;42.540;23.496;2023-02-17T03:13:33;94391.50;;;-3.57;86.55
35888;BME280;21990;42.540;23.496;2023-02-17T03:16:04;94382.13;;;-3.59;86.52
35888;BME280;21990;42.540;23.496;2023-02-17T03:18:34;94390.25;;;-3.52;86.73
35888;BME280;21990;42.540;23.496;2023-02-17T03:21:13;94382.34;;;-3.70;86.19
35888;BME280;21990;42.540;23.496;2023-02-17T03:23:39;94374.72;;;-3.62;86.48
35888;BME280;21990;42.540;23.496;2023-02-17T03:26:05;94380.63;;;-3.64;86.77
35888;BME280;21990;42.540;23.496;2023-02-17T03:28:30;94391.81;;;-3.51;86.81
35888;BME280;21990;42.540;23.496;2023-02-17T03:30:56;94392.50;;;-3.67;86.62
35888;BME280;21990;42.540;23.496;2023-02-17T03:33:21;94391.09;;;-3.55;86.65
35888;BME280;21990;42.540;23.496;2023-02-17T03:35:47;94381.81;;;-3.65;86.37
35888;BME280;21990;42.540;23.496;2023-02-17T03:38:13;94400.97;;;-3.58;87.36
35888;BME280;21990;42.540;23.496;2023-02-17T03:40:38;94398.00;;;-3.67;87.32
35888;BME280;21990;42.540;23.496;2023-02-17T03:43:04;94406.13;;;-3.60;86.42
35888;BME280;21990;42.540;23.496;2023-02-17T03:45:29;94396.59;;;-3.55;86.78
35888;BME280;21990;42.540;23.496;2023-02-17T03:47:55;94403.06;;;-3.65;87.24
35888;BME280;21990;42.540;23.496;2023-02-17T03:50:20;94392.78;;;-3.61;87.54
35888;BME280;21990;42.540;23.496;2023-02-17T03:52:46;94386.16;;;-3.64;87.18
35888;BME280;21990;42.540;23.496;2023-02-17T03:55:11;94382.69;;;-3.68;87.59
35888;BME280;21990;42.540;23.496;2023-02-17T03:57:37;94384.72;;;-3.72;86.82
35888;BME280;21990;42.540;23.496;2023-02-17T04:00:05;94382.03;;;-3.75;86.59
35888;BME280;21990;42.540;23.496;2023-02-17T04:02:30;94377.31;;;-3.75;86.90
35888;BME280;21990;42.540;23.496;2023-02-17T04:04:56;94368.56;;;-3.70;87.39
35888;BME280;21990;42.540;23.496;2023-02-17T04:07:21;94371.66;;;-3.68;87.10
35888;BME280;21990;42.540;23.496;2023-02-17T04:09:47;94366.34;;;-3.78;87.15
35888;BME280;21990;42.540;23.496;2023-02-17T04:12:12;94378.16;;;-3.78;86.67
35888;BME280;21990;42.540;23.496;2023-02-17T04:14:38;94369.47;;;-3.76;87.15
35888;BME280;21990;42.540;23.496;2023-02-17T04:17:03;94368.13;;;-3.68;87.80
35888;BME280;21990;42.540;23.496;2023-02-17T04:19:29;94364.53;;;-3.65;87.49
35888;BME280;21990;42.540;23.496;2023-02-17T04:21:55;94369.75;;;-3.71;87.57
35888;BME280;21990;42.540;23.496;2023-02-17T04:24:20;94373.13;;;-3.83;87.29
35888;BME280;21990;42.540;23.496;2023-02-17T04:26:46;94371.06;;;-3.99;87.54
35888;BME280;21990;42.540;23.496;2023-02-17T04:29:11;94393.84;;;-3.98;87.87
35888;BME280;21990;42.540;23.496;2023-02-17T04:31:37;94391.22;;;-3.82;88.08
35888;BME280;21990;42.540;23.496;2023-02-17T04:34:02;94395.88;;;-3.79;87.83
35888;BME280;21990;42.540;23.496;2023-02-17T04:36:28;94386.41;;;-3.78;87.62
35888;BME280;21990;42.540;23.496;2023-02-17T04:38:53;94394.41;;;-3.64;88.41
35888;BME280;21990;42.540;23.496;2023-02-17T04:41:19;94397.56;;;-3.65;88.22
35888;BME280;21990;42.540;23.496;2023-02-17T04:43:44;94405.13;;;-3.69;88.10
35888;BME280;21990;42.540;23.496;2023-02-17T04:46:10;94400.91;;;-3.74;87.70
35888;BME280;21990;42.540;23.496;2023-02-17T04:48:36;94395.31;;;-3.70;87.12
35888;BME280;21990;42.540;23.496;2023-02-17T04:51:02;94383.09;;;-3.69;87.00
35888;BME280;21990;42.540;23.496;2023-02-17T04:53:27;94378.50;;;-3.76;87.09
35888;BME280;21990;42.540;23.496;2023-02-17T04:55:53;94384.69;;;-3.92;88.35
35888;BME280;21990;42.540;23.496;2023-02-17T04:58:19;94371.75;;;-3.95;88.26
35888;BME280;21990;42.540;23.496;2023-02-17T05:00:46;94378.13;;;-3.98;88.49
35888;BME280;21990;42.540;23.496;2023-02-17T05:03:12;94389.34;;;-3.89;88.30
35888;BME280;21990;42.540;23.496;2023-02-17T05:05:38;94397.84;;;-3.79;87.52
35888;BME280;21990;42.540;23.496;2023-02-17T05:08:03;94396.72;;;-3.82;87.68
35888;BME280;21990;42.540;23.496;2023-02-17T05:10:29;94404.59;;;-3.84;87.92
35888;BME280;21990;42.540;23.496;2023-02-17T05:12:55;94407.66;;;-3.78;87.70
35888;BME280;21990;42.540;23.496;2023-02-17T05:15:21;94413.44;;;-3.73;87.36
35888;BME280;21990;42.540;23.496;2023-02-17T05:17:46;94407.72;;;-3.82;87.73
35888;BME280;21990;42.540;23.496;2023-02-17T05:20:12;94408.00;;;-3.76;87.64
35888;BME280;21990;42.540;23.496;2023-02-17T05:22:38;94421.00;;;-3.77;87.58
35888;BME280;21990;42.540;23.496;2023-02-17T05:25:03;94423.34;;;-3.75;87.54
35888;BME280;21990;42.540;23.496;2023-02-17T05:27:29;94411.13;;;-3.74;88.21
35888;BME280;21990;42.540;23.496;2023-02-17T05:29:55;94410.63;;;-3.89;88.30
35888;BME280;21990;42.540;23.496;2023-02-17T05:32:21;94420.19;;;-3.97;88.32
35888;BME280;21990;42.540;23.496;2023-02-17T05:34:47;94410.19;;;-3.88;88.85
35888;BME280;21990;42.540;23.496;2023-02-17T05:37:12;94412.22;;;-3.92;88.63
35888;BME280;21990;42.540;23.496;2023-02-17T05:39:38;94425.31;;;-3.99;89.22
35888;BME280;21990;42.540;23.496;2023-02-17T05:42:04;94419.47;;;-4.01;89.75
35888;BME280;21990;42.540;23.496;2023-02-17T05:44:29;94427.47;;;-4.10;90.13
35888;BME280;21990;42.540;23.496;2023-02-17T05:46:55;94439.16;;;-4.03;90.07
35888;BME280;21990;42.540;23.496;2023-02-17T05:49:20;94439.47;;;-3.97;90.30
35888;BME280;21990;42.540;23.496;2023-02-17T05:51:46;94429.56;;;-3.95;90.13
35888;BME280;21990;42.540;23.496;2023-02-17T05:54:11;94448.13;;;-3.75;90.67
35888;BME280;21990;42.540;23.496;2023-02-17T05:56:37;94440.09;;;-3.66;90.30
35888;BME280;21990;42.540;23.496;2023-02-17T05:59:03;94449.81;;;-3.58;89.91
35888;BME280;21990;42.540;23.496;2023-02-17T06:01:28;94449.94;;;-3.46;90.26
35888;BME280;21990;42.540;23.496;2023-02-17T06:03:54;94448.59;;;-3.38;90.67
35888;BME280;21990;42.540;23.496;2023-02-17T06:06:19;94461.78;;;-3.25;90.46
35888;BME280;21990;42.540;23.496;2023-02-17T06:08:45;94459.94;;;-3.12;90.69
35888;BME280;21990;42.540;23.496;2023-02-17T06:11:10;94449.19;;;-3.07;91.00
35888;BME280;21990;42.540;23.496;2023-02-17T06:13:36;94449.09;;;-3.23;90.41
35888;BME280;21990;42.540;23.496;2023-02-17T06:16:01;94455.00;;;-3.21;91.04
35888;BME280;21990;42.540;23.496;2023-02-17T06:18:27;94460.56;;;-3.24;91.34
35888;BME280;21990;42.540;23.496;2023-02-17T06:20:56;94459.09;;;-3.09;91.91
35888;BME280;21990;42.540;23.496;2023-02-17T06:23:23;94457.47;;;-2.87;92.59
35888;BME280;21990;42.540;23.496;2023-02-17T06:25:48;94464.38;;;-2.59;92.18
35888;BME280;21990;42.540;23.496;2023-02-17T06:28:14;94464.16;;;-2.32;91.52
35888;BME280;21990;42.540;23.496;2023-02-17T06:30:40;94458.09;;;-2.08;90.99
35888;BME280;21990;42.540;23.496;2023-02-17T06:33:05;94460.88;;;-1.92;90.51
35888;BME280;21990;42.540;23.496;2023-02-17T06:35:31;94463.53;;;-1.72;89.70
35888;BME280;21990;42.540;23.496;2023-02-17T06:37:56;94461.00;;;-1.50;90.64
35888;BME280;21990;42.540;23.496;2023-02-17T06:40:22;94461.09;;;-1.37;88.56
35888;BME280;21990;42.540;23.496;2023-02-17T06:42:48;94465.78;;;-1.06;89.56
35888;BME280;21990;42.540;23.496;2023-02-17T06:45:13;94462.03;;;-0.58;92.04
35888;BME280;21990;42.540;23.496;2023-02-17T06:47:39;94458.69;;;0.14;92.46
35888;BME280;21990;42.540;23.496;2023-02-17T06:50:05;94473.78;;;0.73;92.93
35888;BME280;21990;42.540;23.496;2023-02-17T06:52:31;94457.44;;;1.43;90.43
35888;BME280;21990;42.540;23.496;2023-02-17T06:54:57;94448.50;;;2.10;89.73
35888;BME280;21990;42.540;23.496;2023-02-17T06:57:22;94459.28;;;2.97;86.96
35888;BME280;21990;42.540;23.496;2023-02-17T06:59:48;94455.41;;;3.67;82.85
35888;BME280;21990;42.540;23.496;2023-02-17T07:02:13;94455.09;;;4.25;83.21
35888;BME280;21990;42.540;23.496;2023-02-17T07:04:39;94453.22;;;4.32;78.19
35888;BME280;21990;42.540;23.496;2023-02-17T07:07:06;94462.03;;;4.39;75.38
35888;BME280;21990;42.540;23.496;2023-02-17T07:09:32;94450.44;;;4.32;76.34
35888;BME280;21990;42.540;23.496;2023-02-17T07:11:58;94443.66;;;4.80;82.05
35888;BME280;21990;42.540;23.496;2023-02-17T07:14:24;94447.47;;;4.92;71.96
35888;BME280;21990;42.540;23.496;2023-02-17T07:16:50;94451.25;;;4.79;77.84
35888;BME280;21990;42.540;23.496;2023-02-17T07:19:16;94443.66;;;5.28;77.16
35888;BME280;21990;42.540;23.496;2023-02-17T07:21:41;94444.56;;;6.01;72.99
35888;BME280;21990;42.540;23.496;2023-02-17T07:24:07;94443.69;;;6.25;75.37
35888;BME280;21990;42.540;23.496;2023-02-17T07:26:37;94446.66;;;6.65;77.92
35888;BME280;21990;42.540;23.496;2023-02-17T07:29:04;94443.56;;;6.48;74.66
35888;BME280;21990;42.540;23.496;2023-02-17T07:31:31;94451.13;;;6.77;75.07
35888;BME280;21990;42.540;23.496;2023-02-17T07:33:57;94450.38;;;6.62;69.96
35888;BME280;21990;42.540;23.496;2023-02-17T07:36:22;94454.28;;;6.50;69.06
35888;BME280;21990;42.540;23.496;2023-02-17T07:38:48;94450.06;;;6.25;68.00
35888;BME280;21990;42.540;23.496;2023-02-17T07:41:16;94454.50;;;5.88;70.97
35888;BME280;21990;42.540;23.496;2023-02-17T07:43:42;94457.31;;;6.02;72.77
35888;BME280;21990;42.540;23.496;2023-02-17T07:46:08;94456.94;;;6.09;67.03
35888;BME280;21990;42.540;23.496;2023-02-17T07:48:34;94458.03;;;5.73;67.13
35888;BME280;21990;42.540;23.496;2023-02-17T07:51:20;94460.78;;;5.44;68.70
35888;BME280;21990;42.540;23.496;2023-02-17T07:53:47;94458.41;;;5.28;71.01
35888;BME280;21990;42.540;23.496;2023-02-17T07:56:14;94457.44;;;5.31;70.24
35888;BME280;21990;42.540;23.496;2023-02-17T07:58:41;94450.84;;;5.43;71.96
35888;BME280;21990;42.540;23.496;2023-02-17T08:01:14;94452.66;;;5.46;71.82
35888;BME280;21990;42.540;23.496;2023-02-17T08:03:40;94454.28;;;5.38;68.55
35888;BME280;21990;42.540;23.496;2023-02-17T08:06:14;94453.81;;;5.40;69.22
35888;BME280;21990;42.540;23.496;2023-02-17T08:08:40;94441.56;;;5.37;69.03
35888;BME280;21990;42.540;23.496;2023-02-17T08:11:24;94437.88;;;5.31;69.37
35888;BME280;21990;42.540;23.496;2023-02-17T08:14:08;94444.81;;;5.21;66.41
35888;BME280;21990;42.540;23.496;2023-02-17T08:16:34;94436.59;;;5.17;70.87
35888;BME280;21990;42.540;23.496;2023-02-17T08:18:59;94439.03;;;5.24;68.04
35888;BME280;21990;42.540;23.496;2023-02-17T08:21:25;94439.53;;;5.38;68.02
35888;BME280;21990;42.540;23.496;2023-02-17T08:23:51;94447.31;;;5.34;67.49
35888;BME280;21990;42.540;23.496;2023-02-17T08:26:17;94446.31;;;5.46;68.43
35888;BME280;21990;42.540;23.496;2023-02-17T08:28:44;94442.78;;;5.60;69.41
35888;BME280;21990;42.540;23.496;2023-02-17T08:31:18;94444.81;;;5.74;69.72
35888;BME280;21990;42.540;23.496;2023-02-17T08:33:43;94439.75;;;5.87;69.56
35888;BME280;21990;42.540;23.496;2023-02-17T08:36:09;94435.78;;;5.94;70.00
35888;BME280;21990;42.540;23.496;2023-02-17T08:38:35;94427.41;;;6.08;70.13
35888;BME280;21990;42.540;23.496;2023-02-17T08:41:01;94423.25;;;6.18;68.25
35888;BME280;21990;42.540;23.496;2023-02-17T08:43:26;94422.94;;;6.31;68.73
35888;BME280;21990;42.540;23.496;2023-02-17T08:45:52;94423.97;;;6.48;68.23
35888;BME280;21990;42.540;23.496;2023-02-17T08:48:17;94420.66;;;6.64;66.65
35888;BME280;21990;42.540;23.496;2023-02-17T08:50:46;94416.84;;;6.82;66.79
35888;BME280;21990;42.540;23.496;2023-02-17T08:53:11;94418.88;;;7.02;68.50
35888;BME280;21990;42.540;23.496;2023-02-17T08:55:37;94409.44;;;7.20;65.03
35888;BME280;21990;42.540;23.496;2023-02-17T08:58:02;94413.56;;;7.44;69.22
35888;BME280;21990;42.540;23.496;2023-02-17T09:00:28;94403.56;;;7.63;64.87
35888;BME280;21990;42.540;23.496;2023-02-17T09:02:53;94405.63;;;7.89;64.08
35888;BME280;21990;42.540;23.496;2023-02-17T09:05:19;94412.00;;;8.15;61.15
35888;BME280;21990;42.540;23.496;2023-02-17T09:07:45;94400.00;;;8.40;56.41
35888;BME280;21990;42.540;23.496;2023-02-17T09:10:11;94409.38;;;8.69;52.27
35888;BME280;21990;42.540;23.496;2023-02-17T09:12:36;94413.63;;;8.90;53.83
35888;BME280;21990;42.540;23.496;2023-02-17T09:15:02;94412.44;;;9.07;53.07
35888;BME280;21990;42.540;23.496;2023-02-17T09:17:28;94412.09;;;9.37;50.13
35888;BME280;21990;42.540;23.496;2023-02-17T09:19:53;94416.25;;;9.52;49.55
35888;BME280;21990;42.540;23.496;2023-02-17T09:22:19;94412.44;;;9.67;51.65
35888;BME280;21990;42.540;23.496;2023-02-17T09:24:45;94416.63;;;9.88;51.21
35888;BME280;21990;42.540;23.496;2023-02-17T09:27:11;94406.13;;;10.05;51.39
35888;BME280;21990;42.540;23.496;2023-02-17T09:29:38;94407.47;;;10.15;48.26
35888;BME280;21990;42.540;23.496;2023-02-17T09:32:08;94409.00;;;10.27;49.12
35888;BME280;21990;42.540;23.496;2023-02-17T09:34:38;94408.00;;;10.36;48.12
35888;BME280;21990;42.540;23.496;2023-02-17T09:37:10;94406.72;;;10.31;46.85
35888;BME280;21990;42.540;23.496;2023-02-17T09:39:36;94409.78;;;10.44;47.95
35888;BME280;21990;42.540;23.496;2023-02-17T09:42:01;94402.38;;;10.53;46.28
35888;BME280;21990;42.540;23.496;2023-02-17T09:44:42;94402.88;;;10.62;46.57
35888;BME280;21990;42.540;23.496;2023-02-17T09:47:21;94393.66;;;10.67;47.64
35888;BME280;21990;42.540;23.496;2023-02-17T09:50:15;94400.81;;;10.74;46.74
35888;BME280;21990;42.540;23.496;2023-02-17T09:53:04;94393.88;;;10.91;47.50
35888;BME280;21990;42.540;23.496;2023-02-17T09:55:41;94397.69;;;11.05;46.44
35888;BME280;21990;42.540;23.496;2023-02-17T09:58:21;94391.25;;;11.21;44.47
35888;BME280;21990;42.540;23.496;2023-02-17T10:00:55;94398.66;;;11.35;45.50
35888;BME280;21990;42.540;23.496;2023-02-17T10:06:12;94391.63;;;11.59;44.88
35888;BME280;21990;42.540;23.496;2023-02-17T10:09:23;94382.63;;;11.60;44.95
35888;BME280;21990;42.540;23.496;2023-02-17T10:12:11;94382.63;;;11.66;44.82
35888;BME280;21990;42.540;23.496;2023-02-17T10:14:47;94379.00;;;11.71;44.83
35888;BME280;21990;42.540;23.496;2023-02-17T10:17:19;94376.66;;;11.86;45.47
35888;BME280;21990;42.540;23.496;2023-02-17T10:20:04;94373.78;;;11.92;44.05
35888;BME280;21990;42.540;23.496;2023-02-17T10:22:31;94365.00;;;12.01;45.05
35888;BME280;21990;42.540;23.496;2023-02-17T10:24:59;94372.41;;;12.09;42.69
35888;BME280;21990;42.540;23.496;2023-02-17T10:27:39;94374.13;;;12.18;43.84
35888;BME280;21990;42.540;23.496;2023-02-17T10:30:21;94374.84;;;12.24;43.71
35888;BME280;21990;42.540;23.496;2023-02-17T10:38:27;94372.03;;;12.24;43.01
35888;BME280;21990;42.540;23.496;2023-02-17T10:40:58;94365.28;;;12.32;44.24
35888;BME280;21990;42.540;23.496;2023-02-17T10:43:27;94368.59;;;12.36;42.91
35888;BME280;21990;42.540;23.496;2023-02-17T10:45:56;94360.34;;;12.38;39.98
35888;BME280;21990;42.540;23.496;2023-02-17T10:48:48;94354.03;;;12.27;42.13
35888;BME280;21990;42.540;23.496;2023-02-17T10:51:19;94353.44;;;12.34;41.50
35888;BME280;21990;42.540;23.496;2023-02-17T10:53:50;94352.13;;;12.41;40.87
35888;BME280;21990;42.540;23.496;2023-02-17T10:56:22;94353.34;;;12.45;42.04
35888;BME280;21990;42.540;23.496;2023-02-17T11:01:40;94341.13;;;12.61;41.46
35888;BME280;21990;42.540;23.496;2023-02-17T11:04:09;94334.09;;;12.73;41.48
35888;BME280;21990;42.540;23.496;2023-02-17T11:06:40;94341.25;;;12.80;41.58
35888;BME280;21990;42.540;23.496;2023-02-17T11:09:20;94331.88;;;12.91;42.65
35888;BME280;21990;42.540;23.496;2023-02-17T11:11:59;94332.06;;;12.98;43.22
35888;BME280;21990;42.540;23.496;2023-02-17T11:14:30;94322.38;;;12.88;41.76
35888;BME280;21990;42.540;23.496;2023-02-17T11:19:26;94318.53;;;12.85;38.87
35888;BME280;21990;42.540;23.496;2023-02-17T11:21:54;94321.66;;;12.82;39.24
35888;BME280;21990;42.540;23.496;2023-02-17T11:24:20;94328.03;;;12.88;41.55
35888;BME280;21990;42.540;23.496;2023-02-17T11:27:09;94320.78;;;12.93;40.67
35888;BME280;21990;42.540;23.496;2023-02-17T11:29:36;94312.78;;;12.97;40.37
35888;BME280;21990;42.540;23.496;2023-02-17T11:32:07;94316.88;;;12.96;39.03
35888;BME280;21990;42.540;23.496;2023-02-17T11:34:38;94309.72;;;12.95;39.82
35888;BME280;21990;42.540;23.496;2023-02-17T11:39:41;94309.88;;;12.78;39.37
35888;BME280;21990;42.540;23.496;2023-02-17T11:42:33;94307.00;;;12.83;37.63
35888;BME280;21990;42.540;23.496;2023-02-17T11:45:14;94302.31;;;12.92;39.93
35888;BME280;21990;42.540;23.496;2023-02-17T11:50:59;94296.69;;;12.86;40.00
35888;BME280;21990;42.540;23.496;2023-02-17T11:56:18;94288.69;;;12.90;39.56
35888;BME280;21990;42.540;23.496;2023-02-17T12:07:27;94285.59;;;12.88;37.37
35888;BME280;21990;42.540;23.496;2023-02-17T12:25:32;94270.47;;;12.61;37.83
35888;BME280;21990;42.540;23.496;2023-02-17T12:31:10;94265.53;;;12.67;38.07
35888;BME280;21990;42.540;23.496;2023-02-17T12:36:36;94261.84;;;12.72;38.70
35888;BME280;21990;42.540;23.496;2023-02-17T12:42:03;94237.00;;;12.65;38.72
35888;BME280;21990;42.540;23.496;2023-02-17T12:44:41;94250.38;;;12.65;38.12
35888;BME280;21990;42.540;23.496;2023-02-17T12:47:19;94250.75;;;12.56;38.62
35888;BME280;21990;42.540;23.496;2023-02-17T12:52:36;94246.84;;;12.59;39.49
35888;BME280;21990;42.540;23.496;2023-02-17T12:55:20;94250.78;;;12.50;38.86
35888;BME280;21990;42.540;23.496;2023-02-17T12:57:57;94240.41;;;12.34;39.52
35888;BME280;21990;42.540;23.496;2023-02-17T13:00:39;94238.97;;;12.22;40.10
35888;BME280;21990;42.540;23.496;2023-02-17T13:03:06;94238.16;;;12.27;39.38
35888;BME280;21990;42.540;23.496;2023-02-17T13:05:47;94228.44;;;12.22;40.34
35888;BME280;21990;42.540;23.496;2023-02-17T13:08:21;94232.84;;;12.18;39.12
35888;BME280;21990;42.540;23.496;2023-02-17T13:11:09;94227.47;;;12.14;38.10
35888;BME280;21990;42.540;23.496;2023-02-17T13:13:35;94230.38;;;12.09;39.22
35888;BME280;21990;42.540;23.496;2023-02-17T13:16:09;94228.53;;;12.11;40.29
35888;BME280;21990;42.540;23.496;2023-02-17T13:18:41;94231.09;;;12.15;40.94
35888;BME280;21990;42.540;23.496;2023-02-17T13:24:14;94239.72;;;11.98;40.66
35888;BME280;21990;42.540;23.496;2023-02-17T13:26:42;94230.75;;;11.94;41.69
35888;BME280;21990;42.540;23.496;2023-02-17T13:29:18;94229.84;;;11.80;42.80
35888;BME280;21990;42.540;23.496;2023-02-17T13:32:03;94233.84;;;11.55;42.81
35888;BME280;21990;42.540;23.496;2023-02-17T13:34:31;94236.69;;;11.50;43.58
35888;BME280;21990;42.540;23.496;2023-02-17T13:36:58;94227.31;;;11.36;44.06
35888;BME280;21990;42.540;23.496;2023-02-17T13:41:50;94224.06;;;11.15;44.59
35888;BME280;21990;42.540;23.496;2023-02-17T13:44:28;94237.63;;;11.17;44.91
35888;BME280;21990;42.540;23.496;2023-02-17T13:46:58;94219.50;;;11.07;45.05
35888;BME280;21990;42.540;23.496;2023-02-17T13:49:26;94221.81;;;11.08;44.99
35888;BME280;21990;42.540;23.496;2023-02-17T13:51:53;94223.38;;;10.98;45.66
35888;BME280;21990;42.540;23.496;2023-02-17T13:54:21;94225.19;;;10.95;45.93
35888;BME280;21990;42.540;23.496;2023-02-17T13:56:51;94223.16;;;10.90;46.44
35888;BME280;21990;42.540;23.496;2023-02-17T13:59:24;94215.81;;;10.76;47.26
35888;BME280;21990;42.540;23.496;2023-02-17T14:01:50;94222.22;;;10.71;46.11
35888;BME280;21990;42.540;23.496;2023-02-17T14:04:24;94217.13;;;10.64;47.62
35888;BME280;21990;42.540;23.496;2023-02-17T14:06:51;94220.03;;;10.42;46.82
35888;BME280;21990;42.540;23.496;2023-02-17T14:09:28;94208.75;;;10.42;47.58
35888;BME280;21990;42.540;23.496;2023-02-17T14:11:55;94223.06;;;10.44;46.92
35888;BME280;21990;42.540;23.496;2023-02-17T14:14:30;94217.22;;;10.31;47.97
35888;BME280;21990;42.540;23.496;2023-02-17T14:17:02;94212.38;;;10.26;47.01
35888;BME280;21990;42.540;23.496;2023-02-17T14:19:43;94215.16;;;10.31;45.11
35888;BME280;21990;42.540;23.496;2023-02-17T14:22:31;94207.97;;;10.41;44.75
35888;BME280;21990;42.540;23.496;2023-02-17T14:25:06;94218.47;;;10.46;45.63
35888;BME280;21990;42.540;23.496;2023-02-17T14:27:43;94211.53;;;10.47;45.76
35888;BME280;21990;42.540;23.496;2023-02-17T14:30:14;94213.09;;;10.37;45.10
35888;BME280;21990;42.540;23.496;2023-02-17T14:32:40;94219.78;;;10.34;45.86